createdAt,value
2017-11-11T00:00:24.184Z,0
2017-11-11T00:01:04.764Z,0
2017-11-11T00:01:45.347Z,0
2017-11-11T00:02:25.954Z,0
2017-11-11T00:03:06.594Z,0
2017-11-11T00:03:47.232Z,0
2017-11-11T00:04:27.829Z,0
2017-11-11T00:05:08.449Z,0
2017-11-11T00:05:49.038Z,0
2017-11-11T00:06:29.627Z,0
2017-11-11T00:07:10.220Z,0
2017-11-11T00:07:50.814Z,0
2017-11-11T00:08:31.406Z,0
2017-11-11T00:09:11.981Z,0
2017-11-11T00:09:52.586Z,0
2017-11-11T00:10:33.192Z,0
2017-11-11T00:11:13.799Z,0
2017-11-11T00:11:54.362Z,0
2017-11-11T00:12:35.409Z,0
2017-11-11T00:13:16.217Z,0
2017-11-11T00:13:56.930Z,0
2017-11-11T00:14:37.961Z,0
2017-11-11T00:15:18.482Z,0
2017-11-11T00:15:59.146Z,0
2017-11-11T00:16:39.789Z,0
2017-11-11T00:17:20.390Z,0
2017-11-11T00:18:01.109Z,0
2017-11-11T00:18:41.757Z,0
2017-11-11T00:19:22.366Z,0
2017-11-11T00:20:02.966Z,0
2017-11-11T00:20:43.524Z,0
2017-11-11T00:21:24.167Z,0
2017-11-11T00:22:04.756Z,0
2017-11-11T00:22:45.459Z,0
2017-11-11T00:23:26.072Z,0
2017-11-11T00:24:06.707Z,0
2017-11-11T00:24:47.357Z,0
2017-11-11T00:25:27.961Z,0
2017-11-11T00:26:08.549Z,0
2017-11-11T00:26:49.145Z,0
2017-11-11T00:27:29.738Z,0
2017-11-11T00:28:10.319Z,0
2017-11-11T00:28:50.902Z,0
2017-11-11T00:29:31.512Z,0
2017-11-11T00:30:12.139Z,0
2017-11-11T00:30:52.717Z,0
2017-11-11T00:31:33.449Z,0
2017-11-11T00:32:14.056Z,0
2017-11-11T00:32:54.641Z,0
2017-11-11T00:33:35.235Z,0
2017-11-11T00:34:15.827Z,0
2017-11-11T00:34:56.434Z,0
2017-11-11T00:35:37.015Z,0
2017-11-11T00:36:17.605Z,0
2017-11-11T00:36:58.200Z,0
2017-11-11T00:37:38.785Z,0
2017-11-11T00:38:19.390Z,0
2017-11-11T00:38:59.955Z,0
2017-11-11T00:39:40.582Z,0
2017-11-11T00:40:21.151Z,0
2017-11-11T00:41:01.747Z,0
2017-11-11T00:41:42.331Z,0
2017-11-11T00:42:22.936Z,0
2017-11-11T00:43:03.540Z,0
2017-11-11T00:43:44.131Z,0
2017-11-11T00:44:24.708Z,0
2017-11-11T00:45:05.321Z,0
2017-11-11T00:45:45.907Z,0
2017-11-11T00:46:26.531Z,0
2017-11-11T00:47:07.119Z,0
2017-11-11T00:47:47.720Z,0
2017-11-11T00:48:28.342Z,0
2017-11-11T00:49:08.911Z,0
2017-11-11T00:49:49.516Z,0
2017-11-11T00:50:30.119Z,0
2017-11-11T00:51:10.716Z,0
2017-11-11T00:51:51.311Z,0
2017-11-11T00:52:31.898Z,0
2017-11-11T00:53:12.483Z,0
2017-11-11T00:53:53.082Z,0
2017-11-11T00:54:33.687Z,0
2017-11-11T00:55:14.305Z,0
2017-11-11T00:55:54.897Z,0
2017-11-11T00:56:35.490Z,0
2017-11-11T00:57:16.138Z,0
2017-11-11T00:57:56.748Z,0
2017-11-11T00:58:37.343Z,0
2017-11-11T00:59:17.948Z,0
2017-11-11T00:59:58.544Z,0
2017-11-11T01:00:39.139Z,0
2017-11-11T01:01:19.745Z,0
2017-11-11T01:02:00.334Z,0
2017-11-11T01:02:40.931Z,0
2017-11-11T01:03:21.531Z,0
2017-11-11T01:04:02.115Z,0
2017-11-11T01:04:42.686Z,0
2017-11-11T01:05:23.280Z,0
2017-11-11T01:06:03.903Z,0
2017-11-11T01:06:44.504Z,0
2017-11-11T01:07:25.110Z,0
2017-11-11T01:08:05.720Z,0
2017-11-11T01:08:46.284Z,0
2017-11-11T01:09:26.859Z,0
2017-11-11T01:10:07.419Z,0
2017-11-11T01:10:47.999Z,0
2017-11-11T01:11:28.577Z,0
2017-11-11T01:12:09.186Z,0
2017-11-11T01:12:49.788Z,0
2017-11-11T01:13:30.370Z,0
2017-11-11T01:14:10.961Z,0
2017-11-11T01:14:51.532Z,0
2017-11-11T01:15:32.088Z,0
2017-11-11T01:16:12.645Z,0
2017-11-11T01:16:53.225Z,0
2017-11-11T01:17:33.793Z,0
2017-11-11T01:18:14.363Z,0
2017-11-11T01:18:54.943Z,0
2017-11-11T01:19:35.505Z,0
2017-11-11T01:20:16.063Z,0
2017-11-11T01:20:56.626Z,0
2017-11-11T01:21:37.202Z,0
2017-11-11T01:22:17.779Z,0
2017-11-11T01:22:58.352Z,0
2017-11-11T01:23:38.920Z,0
2017-11-11T01:24:19.539Z,0
2017-11-11T01:25:00.120Z,0
2017-11-11T01:25:40.684Z,0
2017-11-11T01:26:21.249Z,0
2017-11-11T01:27:01.819Z,0
2017-11-11T01:27:42.386Z,0
2017-11-11T01:28:22.993Z,0
2017-11-11T01:29:03.565Z,0
2017-11-11T01:29:44.120Z,0
2017-11-11T01:30:24.677Z,0
2017-11-11T01:31:05.250Z,0
2017-11-11T01:31:45.824Z,0
2017-11-11T01:32:26.395Z,0
2017-11-11T01:33:06.964Z,0
2017-11-11T01:33:47.547Z,0
2017-11-11T01:34:28.154Z,0
2017-11-11T01:35:08.744Z,0
2017-11-11T01:35:49.328Z,0
2017-11-11T01:36:29.901Z,0
2017-11-11T01:37:10.477Z,0
2017-11-11T01:37:51.050Z,0
2017-11-11T01:38:31.623Z,0
2017-11-11T01:39:12.189Z,0
2017-11-11T01:39:52.756Z,0
2017-11-11T01:40:33.329Z,0
2017-11-11T01:41:13.891Z,0
2017-11-11T01:41:54.459Z,0
2017-11-11T01:42:35.105Z,0
2017-11-11T01:43:15.718Z,0
2017-11-11T01:43:56.509Z,0
2017-11-11T01:44:37.059Z,0
2017-11-11T01:45:17.632Z,0
2017-11-11T01:45:58.206Z,0
2017-11-11T01:46:38.789Z,0
2017-11-11T01:47:19.363Z,0
2017-11-11T01:47:59.978Z,0
2017-11-11T01:48:40.535Z,0
2017-11-11T01:49:21.095Z,0
2017-11-11T01:50:01.674Z,0
2017-11-11T01:50:42.237Z,0
2017-11-11T01:51:22.833Z,0
2017-11-11T01:52:03.396Z,0
2017-11-11T01:52:43.967Z,0
2017-11-11T01:53:24.593Z,0
2017-11-11T01:54:05.171Z,0
2017-11-11T01:54:45.733Z,0
2017-11-11T01:55:26.312Z,0
2017-11-11T01:56:06.902Z,0
2017-11-11T01:56:47.485Z,0
2017-11-11T01:57:28.067Z,0
2017-11-11T01:58:08.665Z,0
2017-11-11T01:58:49.232Z,0
2017-11-11T01:59:29.822Z,0
2017-11-11T02:00:10.412Z,0
2017-11-11T02:00:50.986Z,0
2017-11-11T02:01:31.585Z,0
2017-11-11T02:02:12.158Z,0
2017-11-11T02:02:52.729Z,0
2017-11-11T02:03:33.321Z,0
2017-11-11T02:04:13.900Z,0
2017-11-11T02:04:54.471Z,0
2017-11-11T02:05:35.047Z,0
2017-11-11T02:06:15.630Z,0
2017-11-11T02:06:56.212Z,0
2017-11-11T02:07:36.796Z,0
2017-11-11T02:08:17.372Z,0
2017-11-11T02:08:57.939Z,0
2017-11-11T02:09:38.539Z,0
2017-11-11T02:10:19.130Z,0
2017-11-11T02:10:59.716Z,0
2017-11-11T02:11:40.305Z,0
2017-11-11T02:12:20.899Z,0
2017-11-11T02:13:01.475Z,0
2017-11-11T02:13:42.061Z,0
2017-11-11T02:14:22.708Z,0
2017-11-11T02:15:03.322Z,0
2017-11-11T02:15:43.946Z,0
2017-11-11T02:16:24.516Z,0
2017-11-11T02:17:05.118Z,0
2017-11-11T02:17:45.687Z,0
2017-11-11T02:18:26.289Z,0
2017-11-11T02:19:06.916Z,0
2017-11-11T02:19:47.493Z,0
2017-11-11T02:20:28.080Z,0
2017-11-11T02:21:08.635Z,0
2017-11-11T02:21:49.227Z,0
2017-11-11T02:22:29.797Z,0
2017-11-11T02:23:10.396Z,0
2017-11-11T02:23:50.959Z,0
2017-11-11T02:24:31.546Z,0
2017-11-11T02:25:12.165Z,0
2017-11-11T02:25:52.734Z,0
2017-11-11T02:26:33.346Z,0
2017-11-11T02:27:13.919Z,0
2017-11-11T02:27:54.554Z,0
2017-11-11T02:28:35.127Z,0
2017-11-11T02:29:15.713Z,0
2017-11-11T02:29:56.338Z,0
2017-11-11T02:30:36.953Z,0
2017-11-11T02:31:17.527Z,0
2017-11-11T02:31:58.113Z,0
2017-11-11T02:32:38.692Z,0
2017-11-11T02:33:19.295Z,0
2017-11-11T02:33:59.854Z,0
2017-11-11T02:34:40.460Z,0
2017-11-11T02:35:21.014Z,0
2017-11-11T02:36:01.640Z,0
2017-11-11T02:36:42.205Z,0
2017-11-11T02:37:22.808Z,0
2017-11-11T02:38:03.382Z,0
2017-11-11T02:38:43.944Z,0
2017-11-11T02:39:24.522Z,0
2017-11-11T02:40:05.098Z,0
2017-11-11T02:40:45.700Z,0
2017-11-11T02:41:26.274Z,0
2017-11-11T02:42:06.887Z,0
2017-11-11T02:42:47.480Z,0
2017-11-11T02:43:28.048Z,0
2017-11-11T02:44:08.626Z,0
2017-11-11T02:44:49.271Z,0
2017-11-11T02:45:29.858Z,0
2017-11-11T02:46:10.438Z,0
2017-11-11T02:46:51.017Z,0
2017-11-11T02:47:31.636Z,0
2017-11-11T02:48:12.208Z,0
2017-11-11T02:48:52.770Z,0
2017-11-11T02:49:33.349Z,0
2017-11-11T02:50:13.916Z,0
2017-11-11T02:50:54.468Z,0
2017-11-11T02:51:35.079Z,0
2017-11-11T02:52:15.656Z,0
2017-11-11T02:52:56.218Z,0
2017-11-11T02:53:36.794Z,0
2017-11-11T02:54:17.387Z,0
2017-11-11T02:54:57.959Z,0
2017-11-11T02:55:38.557Z,0
2017-11-11T02:56:19.182Z,0
2017-11-11T02:56:59.794Z,0
2017-11-11T02:57:40.367Z,0
2017-11-11T02:58:20.959Z,0
2017-11-11T02:59:01.561Z,0
2017-11-11T02:59:42.175Z,0
2017-11-11T03:00:22.773Z,0
2017-11-11T03:01:03.375Z,0
2017-11-11T03:01:43.953Z,0
2017-11-11T03:02:24.540Z,0
2017-11-11T03:03:05.141Z,0
2017-11-11T03:03:45.753Z,0
2017-11-11T03:04:26.343Z,0
2017-11-11T03:05:06.935Z,0
2017-11-11T03:05:47.507Z,0
2017-11-11T03:06:28.156Z,0
2017-11-11T03:07:08.701Z,0
2017-11-11T03:07:49.270Z,0
2017-11-11T03:08:29.862Z,0
2017-11-11T03:09:10.444Z,0
2017-11-11T03:09:51.037Z,0
2017-11-11T03:10:31.635Z,0
2017-11-11T03:11:12.216Z,0
2017-11-11T03:11:52.785Z,0
2017-11-11T03:12:33.374Z,0
2017-11-11T03:13:13.956Z,0
2017-11-11T03:13:54.523Z,0
2017-11-11T03:14:35.102Z,0
2017-11-11T03:15:15.689Z,0
2017-11-11T03:15:56.265Z,0
2017-11-11T03:16:36.882Z,0
2017-11-11T03:17:17.470Z,0
2017-11-11T03:17:58.064Z,0
2017-11-11T03:18:38.629Z,0
2017-11-11T03:19:19.225Z,0
2017-11-11T03:19:59.808Z,0
2017-11-11T03:20:40.423Z,0
2017-11-11T03:21:20.978Z,0
2017-11-11T03:22:01.549Z,0
2017-11-11T03:22:42.125Z,0
2017-11-11T03:23:22.729Z,0
2017-11-11T03:24:03.287Z,0
2017-11-11T03:24:43.860Z,0
2017-11-11T03:25:24.441Z,0
2017-11-11T03:26:05.027Z,0
2017-11-11T03:26:45.645Z,0
2017-11-11T03:27:26.206Z,0
2017-11-11T03:28:06.776Z,0
2017-11-11T03:28:47.361Z,0
2017-11-11T03:29:27.960Z,0
2017-11-11T03:30:08.558Z,0
2017-11-11T03:30:49.133Z,0
2017-11-11T03:31:29.714Z,0
2017-11-11T03:32:10.317Z,0
2017-11-11T03:32:50.908Z,0
2017-11-11T03:33:31.496Z,0
2017-11-11T03:34:12.080Z,0
2017-11-11T03:34:52.698Z,0
2017-11-11T03:35:33.269Z,0
2017-11-11T03:36:13.821Z,0
2017-11-11T03:36:54.421Z,0
2017-11-11T03:37:35.009Z,0
2017-11-11T03:38:15.576Z,0
2017-11-11T03:38:56.238Z,0
2017-11-11T03:39:36.869Z,0
2017-11-11T03:40:17.437Z,0
2017-11-11T03:40:58.020Z,0
2017-11-11T03:41:38.598Z,0
2017-11-11T03:42:19.169Z,0
2017-11-11T03:42:59.741Z,0
2017-11-11T03:43:40.311Z,0
2017-11-11T03:44:20.962Z,0
2017-11-11T03:45:01.523Z,0
2017-11-11T03:45:42.143Z,0
2017-11-11T03:46:22.774Z,0
2017-11-11T03:47:03.342Z,0
2017-11-11T03:47:43.923Z,0
2017-11-11T03:48:24.552Z,0
2017-11-11T03:49:05.127Z,0
2017-11-11T03:49:45.726Z,0
2017-11-11T03:50:26.288Z,0
2017-11-11T03:51:06.865Z,0
2017-11-11T03:51:47.445Z,0
2017-11-11T03:52:28.019Z,0
2017-11-11T03:53:08.601Z,0
2017-11-11T03:53:49.192Z,0
2017-11-11T03:54:29.797Z,0
2017-11-11T03:55:10.376Z,0
2017-11-11T03:55:50.976Z,0
2017-11-11T03:56:31.577Z,0
2017-11-11T03:57:12.185Z,0
2017-11-11T03:57:52.764Z,0
2017-11-11T03:58:33.374Z,0
2017-11-11T03:59:13.977Z,0
2017-11-11T03:59:54.568Z,0
2017-11-11T04:00:35.174Z,0
2017-11-11T04:01:15.775Z,0
2017-11-11T04:01:56.392Z,0
2017-11-11T04:02:37.023Z,0
2017-11-11T04:03:17.601Z,0
2017-11-11T04:03:58.186Z,0
2017-11-11T04:04:38.794Z,0
2017-11-11T04:05:19.362Z,0
2017-11-11T04:05:59.972Z,0
2017-11-11T04:06:40.555Z,0
2017-11-11T04:07:21.144Z,0
2017-11-11T04:08:01.758Z,0
2017-11-11T04:08:42.382Z,0
2017-11-11T04:09:22.976Z,0
2017-11-11T04:10:03.569Z,0
2017-11-11T04:10:44.163Z,0
2017-11-11T04:11:24.819Z,0
2017-11-11T04:12:05.388Z,0
2017-11-11T04:12:45.967Z,0
2017-11-11T04:13:26.597Z,0
2017-11-11T04:14:07.190Z,0
2017-11-11T04:14:47.788Z,0
2017-11-11T04:15:28.394Z,0
2017-11-11T04:16:08.988Z,0
2017-11-11T04:16:49.556Z,0
2017-11-11T04:17:30.174Z,0
2017-11-11T04:18:10.765Z,0
2017-11-11T04:18:51.381Z,0
2017-11-11T04:19:31.974Z,0
2017-11-11T04:20:12.570Z,0
2017-11-11T04:20:53.172Z,0
2017-11-11T04:21:33.782Z,0
2017-11-11T04:22:14.372Z,0
2017-11-11T04:22:54.966Z,0
2017-11-11T04:23:35.574Z,0
2017-11-11T04:24:16.165Z,0
2017-11-11T04:24:56.754Z,0
2017-11-11T04:25:37.355Z,0
2017-11-11T04:26:17.948Z,0
2017-11-11T04:26:58.535Z,0
2017-11-11T04:27:39.145Z,0
2017-11-11T04:28:19.735Z,0
2017-11-11T04:29:00.353Z,0
2017-11-11T04:29:40.952Z,0
2017-11-11T04:30:21.567Z,0
2017-11-11T04:31:02.139Z,0
2017-11-11T04:31:42.761Z,0
2017-11-11T04:32:23.363Z,0
2017-11-11T04:33:03.983Z,0
2017-11-11T04:33:44.561Z,0
2017-11-11T04:34:25.195Z,0
2017-11-11T04:35:05.756Z,0
2017-11-11T04:35:46.353Z,0
2017-11-11T04:36:26.948Z,0
2017-11-11T04:37:07.518Z,0
2017-11-11T04:37:48.113Z,0
2017-11-11T04:38:28.711Z,0
2017-11-11T04:39:09.283Z,0
2017-11-11T04:39:49.874Z,0
2017-11-11T04:40:30.467Z,0
2017-11-11T04:41:11.064Z,0
2017-11-11T04:41:51.666Z,0
2017-11-11T04:42:32.244Z,0
2017-11-11T04:43:12.852Z,0
2017-11-11T04:43:53.429Z,0
2017-11-11T04:44:34.076Z,0
2017-11-11T04:45:14.648Z,0
2017-11-11T04:45:55.260Z,0
2017-11-11T04:46:35.843Z,0
2017-11-11T04:47:16.472Z,0
2017-11-11T04:47:57.070Z,0
2017-11-11T04:48:37.798Z,0
2017-11-11T04:49:18.373Z,0
2017-11-11T04:49:58.998Z,0
2017-11-11T04:50:39.572Z,0
2017-11-11T04:51:20.193Z,0
2017-11-11T04:52:00.780Z,0
2017-11-11T04:52:41.376Z,0
2017-11-11T04:53:21.947Z,0
2017-11-11T04:54:02.535Z,0
2017-11-11T04:54:43.123Z,0
2017-11-11T04:55:23.731Z,0
2017-11-11T04:56:04.351Z,0
2017-11-11T04:56:44.933Z,0
2017-11-11T04:57:25.508Z,0
2017-11-11T04:58:06.105Z,0
2017-11-11T04:58:46.707Z,0
2017-11-11T04:59:27.322Z,0
2017-11-11T05:00:07.906Z,0
2017-11-11T05:00:48.491Z,0
2017-11-11T05:01:29.089Z,0
2017-11-11T05:02:09.661Z,0
2017-11-11T05:02:50.232Z,0
2017-11-11T05:03:30.823Z,0
2017-11-11T05:04:11.399Z,0
2017-11-11T05:04:52.012Z,0
2017-11-11T05:05:32.590Z,0
2017-11-11T05:06:13.191Z,0
2017-11-11T05:06:53.794Z,0
2017-11-11T05:07:34.420Z,0
2017-11-11T05:08:15.006Z,0
2017-11-11T05:08:55.573Z,0
2017-11-11T05:09:36.162Z,0
2017-11-11T05:10:16.749Z,0
2017-11-11T05:10:57.333Z,0
2017-11-11T05:11:37.915Z,0
2017-11-11T05:12:18.516Z,0
2017-11-11T05:12:59.091Z,0
2017-11-11T05:13:39.702Z,0
2017-11-11T05:14:20.276Z,0
2017-11-11T05:15:00.851Z,0
2017-11-11T05:15:41.461Z,0
2017-11-11T05:16:22.042Z,0
2017-11-11T05:17:02.633Z,0
2017-11-11T05:17:43.218Z,0
2017-11-11T05:18:23.872Z,0
2017-11-11T05:19:04.499Z,0
2017-11-11T05:19:45.076Z,0
2017-11-11T05:20:25.686Z,0
2017-11-11T05:21:06.254Z,0
2017-11-11T05:21:46.841Z,0
2017-11-11T05:22:27.419Z,0
2017-11-11T05:23:07.986Z,0
2017-11-11T05:23:48.553Z,0
2017-11-11T05:24:29.172Z,0
2017-11-11T05:25:09.772Z,0
2017-11-11T05:25:50.371Z,0
2017-11-11T05:26:30.964Z,0
2017-11-11T05:27:11.550Z,0
2017-11-11T05:27:52.121Z,0
2017-11-11T05:28:32.714Z,0
2017-11-11T05:29:13.319Z,0
2017-11-11T05:29:53.898Z,0
2017-11-11T05:30:34.492Z,0
2017-11-11T05:31:15.075Z,0
2017-11-11T05:31:55.672Z,0
2017-11-11T05:32:36.248Z,0
2017-11-11T05:33:16.819Z,0
2017-11-11T05:33:57.397Z,0
2017-11-11T05:34:37.984Z,0
2017-11-11T05:35:18.565Z,0
2017-11-11T05:35:59.137Z,0
2017-11-11T05:36:39.702Z,0
2017-11-11T05:37:20.302Z,0
2017-11-11T05:38:00.901Z,0
2017-11-11T05:38:41.496Z,0
2017-11-11T05:39:22.088Z,0
2017-11-11T05:40:02.708Z,0
2017-11-11T05:40:43.310Z,0
2017-11-11T05:41:23.914Z,0
2017-11-11T05:42:04.496Z,0
2017-11-11T05:42:45.094Z,0
2017-11-11T05:43:25.707Z,0
2017-11-11T05:44:06.294Z,0
2017-11-11T05:44:46.891Z,0
2017-11-11T05:45:27.476Z,0
2017-11-11T05:46:08.067Z,0
2017-11-11T05:46:48.643Z,0
2017-11-11T05:47:29.222Z,0
2017-11-11T05:48:09.811Z,0
2017-11-11T05:48:50.399Z,0
2017-11-11T05:49:31.022Z,0
2017-11-11T05:50:11.622Z,0
2017-11-11T05:50:52.225Z,0
2017-11-11T05:51:32.817Z,0
2017-11-11T05:52:13.439Z,0
2017-11-11T05:52:54.020Z,0
2017-11-11T05:53:34.610Z,0
2017-11-11T05:54:15.205Z,0
2017-11-11T05:54:55.840Z,0
2017-11-11T05:55:36.420Z,0
2017-11-11T05:56:17.020Z,0
2017-11-11T05:56:57.611Z,0
2017-11-11T05:57:38.178Z,0
2017-11-11T05:58:18.742Z,0
2017-11-11T05:58:59.325Z,0
2017-11-11T05:59:39.949Z,0
2017-11-11T06:00:20.528Z,0
2017-11-11T06:01:01.127Z,0
2017-11-11T06:01:41.728Z,0
2017-11-11T06:02:22.331Z,0
2017-11-11T06:03:02.905Z,0
2017-11-11T06:03:43.514Z,0
2017-11-11T06:04:24.113Z,0
2017-11-11T06:05:04.692Z,0
2017-11-11T06:05:45.283Z,0
2017-11-11T06:06:25.847Z,0
2017-11-11T06:07:06.438Z,0
2017-11-11T06:07:47.046Z,0
2017-11-11T06:08:27.624Z,0
2017-11-11T06:09:08.194Z,0
2017-11-11T06:09:48.795Z,0
2017-11-11T06:10:29.386Z,0
2017-11-11T06:11:10.028Z,0
2017-11-11T06:11:50.612Z,0
2017-11-11T06:12:31.205Z,0
2017-11-11T06:13:11.795Z,0
2017-11-11T06:13:52.409Z,0
2017-11-11T06:14:32.977Z,0
2017-11-11T06:15:13.561Z,0
2017-11-11T06:15:54.157Z,0
2017-11-11T06:16:34.765Z,0
2017-11-11T06:17:15.400Z,0
2017-11-11T06:17:56.021Z,0
2017-11-11T06:18:36.578Z,0
2017-11-11T06:19:17.169Z,0
2017-11-11T06:19:57.749Z,0
2017-11-11T06:20:38.347Z,0
2017-11-11T06:21:18.956Z,0
2017-11-11T06:21:59.570Z,0
2017-11-11T06:22:40.167Z,0
2017-11-11T06:23:20.736Z,0
2017-11-11T06:24:01.356Z,0
2017-11-11T06:24:41.928Z,0
2017-11-11T06:25:22.518Z,0
2017-11-11T06:26:03.090Z,0
2017-11-11T06:26:43.714Z,0
2017-11-11T06:27:24.366Z,0
2017-11-11T06:28:04.947Z,0
2017-11-11T06:28:45.545Z,0
2017-11-11T06:29:26.167Z,0
2017-11-11T06:30:06.752Z,0
2017-11-11T06:30:47.308Z,0
2017-11-11T06:31:27.872Z,0
2017-11-11T06:32:08.455Z,0
2017-11-11T06:32:49.080Z,0
2017-11-11T06:33:29.673Z,0
2017-11-11T06:34:10.272Z,0
2017-11-11T06:34:50.860Z,0
2017-11-11T06:35:31.433Z,0
2017-11-11T06:36:12.049Z,0
2017-11-11T06:36:52.609Z,0
2017-11-11T06:37:33.187Z,0
2017-11-11T06:38:13.805Z,0
2017-11-11T06:38:54.400Z,0
2017-11-11T06:39:34.980Z,0
2017-11-11T06:40:15.560Z,0
2017-11-11T06:40:56.138Z,0
2017-11-11T06:41:36.705Z,0
2017-11-11T06:42:17.295Z,0
2017-11-11T06:42:57.894Z,0
2017-11-11T06:43:38.483Z,0
2017-11-11T06:44:19.135Z,0
2017-11-11T06:44:59.717Z,0
2017-11-11T06:45:40.299Z,0
2017-11-11T06:46:20.870Z,0
2017-11-11T06:47:01.465Z,0
2017-11-11T06:47:42.034Z,0
2017-11-11T06:48:22.632Z,0
2017-11-11T06:49:03.210Z,0
2017-11-11T06:49:43.801Z,0
2017-11-11T06:50:24.397Z,0
2017-11-11T06:51:04.992Z,5
2017-11-11T06:51:45.622Z,5
2017-11-11T06:52:26.157Z,5
2017-11-11T06:53:06.767Z,5
2017-11-11T06:53:47.363Z,5
2017-11-11T06:54:27.938Z,5
2017-11-11T06:55:08.562Z,5
2017-11-11T06:55:49.134Z,5
2017-11-11T06:56:29.702Z,5
2017-11-11T06:57:10.291Z,10
2017-11-11T06:57:50.871Z,10
2017-11-11T06:58:31.447Z,10
2017-11-11T06:59:12.063Z,10
2017-11-11T06:59:52.648Z,10
2017-11-11T07:00:33.228Z,10
2017-11-11T07:01:13.822Z,10
2017-11-11T07:01:54.423Z,10
2017-11-11T07:02:35.105Z,10
2017-11-11T07:03:15.687Z,10
2017-11-11T07:03:56.456Z,10
2017-11-11T07:04:37.037Z,10
2017-11-11T07:05:17.641Z,10
2017-11-11T07:05:58.258Z,10
2017-11-11T07:06:38.830Z,10
2017-11-11T07:07:19.417Z,10
2017-11-11T07:07:59.998Z,10
2017-11-11T07:08:40.607Z,10
2017-11-11T07:09:21.179Z,10
2017-11-11T07:10:01.838Z,10
2017-11-11T07:10:42.451Z,10
2017-11-11T07:11:23.027Z,10
2017-11-11T07:12:03.763Z,10
2017-11-11T07:12:44.296Z,10
2017-11-11T07:13:25.598Z,10
2017-11-11T07:14:06.184Z,10
2017-11-11T07:14:46.774Z,10
2017-11-11T07:15:27.695Z,10
2017-11-11T07:16:08.164Z,10
2017-11-11T07:16:48.729Z,5
2017-11-11T07:17:29.312Z,5
2017-11-11T07:18:09.909Z,5
2017-11-11T07:18:50.482Z,5
2017-11-11T07:19:31.082Z,10
2017-11-11T07:20:11.764Z,5
2017-11-11T07:20:52.362Z,5
2017-11-11T07:21:32.948Z,5
2017-11-11T07:22:13.606Z,5
2017-11-11T07:22:54.294Z,5
2017-11-11T07:23:35.064Z,5
2017-11-11T07:24:15.671Z,5
2017-11-11T07:24:56.287Z,5
2017-11-11T07:25:36.874Z,10
2017-11-11T07:26:17.518Z,10
2017-11-11T07:26:59.415Z,10
2017-11-11T07:27:39.852Z,15
2017-11-11T07:28:20.463Z,15
2017-11-11T07:29:01.049Z,20
2017-11-11T07:29:41.738Z,20
2017-11-11T07:30:22.339Z,20
2017-11-11T07:31:03.016Z,25
2017-11-11T07:31:44.091Z,25
2017-11-11T07:32:24.673Z,30
2017-11-11T07:33:05.271Z,30
2017-11-11T07:33:45.965Z,35
2017-11-11T07:34:26.508Z,35
2017-11-11T07:35:07.360Z,40
2017-11-11T07:35:48.093Z,45
2017-11-11T07:36:28.673Z,55
2017-11-11T07:37:09.276Z,65
2017-11-11T07:37:49.921Z,65
2017-11-11T07:38:30.502Z,60
2017-11-11T07:39:11.134Z,65
2017-11-11T07:39:51.807Z,55
2017-11-11T07:40:32.445Z,45
2017-11-11T07:41:13.345Z,45
2017-11-11T07:41:53.964Z,65
2017-11-11T07:42:34.563Z,65
2017-11-11T07:43:15.150Z,60
2017-11-11T07:43:55.729Z,60
2017-11-11T07:44:36.312Z,55
2017-11-11T07:45:16.892Z,60
2017-11-11T07:45:57.532Z,70
2017-11-11T07:46:38.102Z,75
2017-11-11T07:47:18.706Z,70
2017-11-11T07:47:59.311Z,55
2017-11-11T07:48:39.893Z,55
2017-11-11T07:49:20.483Z,55
2017-11-11T07:50:01.068Z,55
2017-11-11T07:50:41.673Z,40
2017-11-11T07:51:22.256Z,35
2017-11-11T07:52:02.846Z,30
2017-11-11T07:52:43.476Z,35
2017-11-11T07:53:24.049Z,40
2017-11-11T07:54:04.626Z,45
2017-11-11T07:54:45.231Z,45
2017-11-11T07:55:25.817Z,30
2017-11-11T07:56:06.412Z,25
2017-11-11T07:56:46.987Z,15
2017-11-11T07:57:27.599Z,10
2017-11-11T07:58:08.209Z,10
2017-11-11T07:58:48.824Z,10
2017-11-11T07:59:29.472Z,10
2017-11-11T08:00:10.022Z,10
2017-11-11T08:00:50.614Z,10
2017-11-11T08:01:31.506Z,10
2017-11-11T08:02:12.118Z,10
2017-11-11T08:02:52.764Z,10
2017-11-11T08:03:33.342Z,10
2017-11-11T08:04:13.937Z,10
2017-11-11T08:04:54.523Z,10
2017-11-11T08:05:35.138Z,10
2017-11-11T08:06:15.723Z,10
2017-11-11T08:06:56.391Z,10
2017-11-11T08:07:37.020Z,10
2017-11-11T08:08:17.605Z,15
2017-11-11T08:08:58.193Z,15
2017-11-11T08:09:38.817Z,15
2017-11-11T08:10:19.897Z,15
2017-11-11T08:11:00.680Z,15
2017-11-11T08:11:41.271Z,15
2017-11-11T08:12:21.926Z,20
2017-11-11T08:13:02.500Z,25
2017-11-11T08:13:43.517Z,25
2017-11-11T08:14:25.658Z,30
2017-11-11T08:15:06.642Z,25
2017-11-11T08:15:47.434Z,25
2017-11-11T08:16:28.059Z,15
2017-11-11T08:17:08.676Z,15
2017-11-11T08:17:49.295Z,15
2017-11-11T08:18:29.856Z,15
2017-11-11T08:19:10.538Z,15
2017-11-11T08:19:51.164Z,20
2017-11-11T08:20:31.977Z,25
2017-11-11T08:21:12.575Z,30
2017-11-11T08:21:53.994Z,25
2017-11-11T08:22:34.978Z,25
2017-11-11T08:23:16.000Z,25
2017-11-11T08:23:57.246Z,20
2017-11-11T08:24:37.880Z,25
2017-11-11T08:25:18.816Z,25
2017-11-11T08:25:59.630Z,25
2017-11-11T08:26:40.265Z,30
2017-11-11T08:27:20.912Z,35
2017-11-11T08:28:01.536Z,35
2017-11-11T08:28:42.168Z,30
2017-11-11T08:29:22.916Z,35
2017-11-11T08:30:03.493Z,30
2017-11-11T08:30:44.092Z,30
2017-11-11T08:31:24.706Z,30
2017-11-11T08:32:05.272Z,30
2017-11-11T08:32:45.879Z,25
2017-11-11T08:33:26.479Z,20
2017-11-11T08:34:07.051Z,20
2017-11-11T08:34:47.832Z,20
2017-11-11T08:35:28.426Z,25
2017-11-11T08:36:08.985Z,25
2017-11-11T08:36:49.585Z,30
2017-11-11T08:37:30.177Z,30
2017-11-11T08:38:10.961Z,25
2017-11-11T08:38:51.880Z,30
2017-11-11T08:39:33.198Z,30
2017-11-11T08:40:14.064Z,30
2017-11-11T08:40:55.378Z,35
2017-11-11T08:41:35.965Z,30
2017-11-11T08:42:16.534Z,25
2017-11-11T08:42:57.111Z,25
2017-11-11T08:43:37.692Z,25
2017-11-11T08:44:18.340Z,25
2017-11-11T08:44:58.977Z,30
2017-11-11T08:45:39.570Z,35
2017-11-11T08:46:20.140Z,35
2017-11-11T08:47:00.721Z,35
2017-11-11T08:47:41.326Z,30
2017-11-11T08:48:21.921Z,25
2017-11-11T08:49:02.509Z,20
2017-11-11T08:49:43.088Z,25
2017-11-11T08:50:23.687Z,25
2017-11-11T08:51:04.260Z,30
2017-11-11T08:51:44.851Z,30
2017-11-11T08:52:25.502Z,25
2017-11-11T08:53:08.096Z,25
2017-11-11T08:53:48.701Z,30
2017-11-11T08:54:29.659Z,35
2017-11-11T08:55:10.245Z,40
2017-11-11T08:55:50.808Z,50
2017-11-11T08:56:31.400Z,50
2017-11-11T08:57:11.986Z,50
2017-11-11T08:57:52.569Z,45
2017-11-11T08:58:33.170Z,45
2017-11-11T08:59:13.753Z,45
2017-11-11T08:59:54.356Z,40
2017-11-11T09:00:34.946Z,35
2017-11-11T09:01:15.517Z,30
2017-11-11T09:01:56.109Z,30
2017-11-11T09:02:36.687Z,30
2017-11-11T09:03:17.276Z,35
2017-11-11T09:03:57.875Z,35
2017-11-11T09:04:38.503Z,40
2017-11-11T09:05:19.076Z,45
2017-11-11T09:05:59.659Z,50
2017-11-11T09:06:40.257Z,55
2017-11-11T09:07:20.863Z,90
2017-11-11T09:08:01.466Z,40
2017-11-11T09:08:42.065Z,35
2017-11-11T09:09:22.654Z,30
2017-11-11T09:10:03.424Z,30
2017-11-11T09:10:50.388Z,40
2017-11-11T09:11:31.023Z,40
2017-11-11T09:12:11.784Z,30
2017-11-11T09:12:52.348Z,25
2017-11-11T09:13:33.066Z,25
2017-11-11T09:14:13.654Z,25
2017-11-11T09:14:54.233Z,25
2017-11-11T09:15:34.829Z,25
2017-11-11T09:16:15.511Z,25
2017-11-11T09:16:56.072Z,30
2017-11-11T09:17:36.671Z,30
2017-11-11T09:18:17.280Z,35
2017-11-11T09:18:57.948Z,35
2017-11-11T09:19:38.539Z,35
2017-11-11T09:20:19.220Z,35
2017-11-11T09:20:59.772Z,35
2017-11-11T09:21:40.367Z,35
2017-11-11T09:22:20.996Z,40
2017-11-11T09:23:01.670Z,40
2017-11-11T09:23:43.307Z,45
2017-11-11T09:24:23.945Z,40
2017-11-11T09:25:04.522Z,40
2017-11-11T09:25:45.119Z,35
2017-11-11T09:26:25.713Z,35
2017-11-11T09:27:06.331Z,35
2017-11-11T09:27:46.913Z,35
2017-11-11T09:28:27.522Z,30
2017-11-11T09:29:08.127Z,25
2017-11-11T09:29:52.803Z,25
2017-11-11T09:30:33.623Z,25
2017-11-11T09:31:16.168Z,20
2017-11-11T09:31:58.646Z,20
2017-11-11T09:32:39.250Z,25
2017-11-11T09:33:19.829Z,25
2017-11-11T09:34:00.476Z,30
2017-11-11T09:34:41.392Z,30
2017-11-11T09:35:21.997Z,40
2017-11-11T09:36:02.626Z,45
2017-11-11T09:36:43.211Z,45
2017-11-11T09:37:23.828Z,45
2017-11-11T09:38:04.693Z,45
2017-11-11T09:38:45.309Z,50
2017-11-11T09:39:27.089Z,55
2017-11-11T09:40:07.864Z,55
2017-11-11T09:40:48.453Z,55
2017-11-11T09:41:29.076Z,45
2017-11-11T09:42:10.164Z,40
2017-11-11T09:42:50.721Z,35
2017-11-11T09:43:31.323Z,35
2017-11-11T09:44:11.895Z,35
2017-11-11T09:44:52.479Z,30
2017-11-11T09:45:33.052Z,30
2017-11-11T09:46:13.614Z,25
2017-11-11T09:46:54.184Z,25
2017-11-11T09:47:34.767Z,25
2017-11-11T09:48:15.391Z,30
2017-11-11T09:48:55.973Z,25
2017-11-11T09:49:36.565Z,25
2017-11-11T09:50:17.143Z,25
2017-11-11T09:50:57.707Z,25
2017-11-11T09:51:38.309Z,20
2017-11-11T09:52:19.128Z,20
2017-11-11T09:52:59.710Z,20
2017-11-11T09:53:40.279Z,20
2017-11-11T09:54:20.868Z,25
2017-11-11T09:55:01.453Z,25